Time;durP1;ratioP1;P1;durP2;ratioP2;P2;SDS_P1;SDS_P2;PMS_P1;PMS_P2;Temp;Humidity;BMP_temperature;BMP_pressure;BME280_temperature;BME280_humidity;BME280_pressure;Samples;Min_cycle;Max_cycle;Signal;HPM_P1;HPM_P2
2022/03/25 00:00:14;;;;;;;10.20;9.03;;;;;;;;;;5051252;28;20448;-74
2022/03/25 00:02:43;;;;;;;10.93;8.93;;;;;;;;;;5068777;28;20465;-74
2022/03/25 00:05:09;;;;;;;13.20;9.50;;;;;;;;;;5065790;28;20460;-74
2022/03/25 00:07:35;;;;;;;14.70;10.67;;;;;;;;;;5050437;28;20429;-74
2022/03/25 00:10:01;;;;;;;14.33;11.30;;;;;;;;;;5068885;28;20425;-74
2022/03/25 00:12:28;;;;;;;14.73;10.33;;;;;;;;;;5067497;28;20447;-74
2022/03/25 00:14:54;;;;;;;14.50;11.17;;;;;;;;;;5050732;28;20492;-74
2022/03/25 00:17:20;;;;;;;17.53;12.23;;;;;;;;;;5048737;28;20791;-74
2022/03/25 00:19:46;;;;;;;18.50;11.30;;;;;;;;;;5069678;28;20433;-74
2022/03/25 00:22:12;;;;;;;16.30;11.40;;;;;;;;;;5050970;28;20421;-74
2022/03/25 00:24:38;;;;;;;18.57;12.93;;;;;;;;;;5068462;28;20433;-74
2022/03/25 00:27:04;;;;;;;16.47;12.30;;;;;;;;;;5067933;28;20524;-74
2022/03/25 00:29:30;;;;;;;19.17;13.70;;;;;;;;;;5068231;28;20433;-74
2022/03/25 00:31:56;;;;;;;22.57;13.77;;;;;;;;;;5067224;28;20446;-75
2022/03/25 00:34:22;;;;;;;25.80;13.67;;;;;;;;;;5065625;28;20485;-74
2022/03/25 00:36:48;;;;;;;15.57;12.30;;;;;;;;;;5068302;28;20975;-75
2022/03/25 00:39:14;;;;;;;19.77;14.00;;;;;;;;;;5066090;28;20470;-74
2022/03/25 00:41:40;;;;;;;16.83;12.00;;;;;;;;;;5064577;28;20433;-74
2022/03/25 00:44:07;;;;;;;19.13;12.90;;;;;;;;;;5066928;28;20910;-75
2022/03/25 00:46:33;;;;;;;18.30;13.07;;;;;;;;;;5068850;28;20418;-75
2022/03/25 00:49:00;;;;;;;22.70;15.43;;;;;;;;;;5068237;28;20433;-74
2022/03/25 00:51:26;;;;;;;27.60;14.13;;;;;;;;;;5067593;28;20464;-74
2022/03/25 00:53:52;;;;;;;21.50;14.77;;;;;;;;;;5069106;28;20502;-75
2022/03/25 00:56:18;;;;;;;22.37;14.23;;;;;;;;;;5068352;28;20825;-74
2022/03/25 00:58:44;;;;;;;16.20;11.30;;;;;;;;;;5065272;28;20455;-75
2022/03/25 01:01:10;;;;;;;12.73;8.17;;;;;;;;;;5068936;28;20520;-75
2022/03/25 01:03:36;;;;;;;8.40;7.80;;;;;;;;;;5062559;28;20508;-75
2022/03/25 01:06:03;;;;;;;10.03;9.07;;;;;;;;;;5066071;28;20791;-75
2022/03/25 01:08:29;;;;;;;13.60;9.20;;;;;;;;;;5066256;28;20776;-74
2022/03/25 01:10:55;;;;;;;12.13;9.03;;;;;;;;;;5066604;28;20444;-74
2022/03/25 01:13:22;;;;;;;11.30;9.40;;;;;;;;;;5066715;28;20996;-74
2022/03/25 01:15:48;;;;;;;9.80;8.80;;;;;;;;;;5068785;28;20436;-75
2022/03/25 01:18:14;;;;;;;10.17;8.93;;;;;;;;;;5068621;28;20450;-74
2022/03/25 01:20:41;;;;;;;23.33;9.70;;;;;;;;;;5067173;28;20789;-75
2022/03/25 01:23:09;;;;;;;20.27;9.77;;;;;;;;;;5048230;28;20524;-74
2022/03/25 01:25:36;;;;;;;12.17;9.97;;;;;;;;;;5068759;28;20426;-75
2022/03/25 01:28:02;;;;;;;12.87;10.17;;;;;;;;;;5050705;28;20797;-76
2022/03/25 01:30:28;;;;;;;9.30;8.40;;;;;;;;;;5067772;28;20485;-75
2022/03/25 01:32:55;;;;;;;10.63;9.50;;;;;;;;;;5067944;28;20467;-76
2022/03/25 01:35:24;;;;;;;11.53;9.30;;;;;;;;;;5066738;28;20488;-75
2022/03/25 01:37:50;;;;;;;12.03;9.67;;;;;;;;;;5065590;28;20976;-75
2022/03/25 01:40:16;;;;;;;11.47;10.33;;;;;;;;;;5061661;28;20434;-74
2022/03/25 01:42:42;;;;;;;13.00;9.77;;;;;;;;;;5060158;28;20448;-74
2022/03/25 01:45:12;;;;;;;13.50;10.37;;;;;;;;;;5048842;28;20429;-73
2022/03/25 01:47:38;;;;;;;10.90;9.73;;;;;;;;;;5050374;28;20502;-74
2022/03/25 01:50:05;;;;;;;15.00;10.17;;;;;;;;;;5050535;28;20429;-74
2022/03/25 01:52:34;;;;;;;10.63;9.47;;;;;;;;;;5041493;28;20816;-74
2022/03/25 01:55:14;;;;;;;14.30;9.60;;;;;;;;;;5068089;28;20512;-74
2022/03/25 01:57:40;;;;;;;17.73;11.37;;;;;;;;;;5061729;28;20435;-75
2022/03/25 02:00:06;;;;;;;23.80;10.77;;;;;;;;;;5050416;28;20855;-75
2022/03/25 02:02:32;;;;;;;13.33;10.60;;;;;;;;;;5067645;28;20475;-74
2022/03/25 02:04:59;;;;;;;17.63;10.47;;;;;;;;;;5066379;28;20442;-74
2022/03/25 02:07:25;;;;;;;14.13;10.73;;;;;;;;;;5068196;28;20436;-74
2022/03/25 02:09:51;;;;;;;12.50;10.20;;;;;;;;;;5067795;28;20441;-75
2022/03/25 02:12:18;;;;;;;14.80;10.03;;;;;;;;;;5046707;28;20474;-75
2022/03/25 02:14:44;;;;;;;16.73;10.77;;;;;;;;;;5052012;28;21062;-75
2022/03/25 02:17:10;;;;;;;13.43;10.33;;;;;;;;;;5068497;28;20498;-76
2022/03/25 02:19:36;;;;;;;14.60;10.97;;;;;;;;;;5069931;28;20799;-74
2022/03/25 02:22:02;;;;;;;15.00;10.23;;;;;;;;;;5068284;28;20429;-74
2022/03/25 02:24:28;;;;;;;13.63;10.63;;;;;;;;;;5069298;28;20437;-74
2022/03/25 02:26:55;;;;;;;15.07;10.60;;;;;;;;;;5070715;28;20421;-74
2022/03/25 02:29:21;;;;;;;14.80;10.60;;;;;;;;;;5070798;28;20429;-74
2022/03/25 02:31:46;;;;;;;11.80;10.37;;;;;;;;;;5067663;28;21027;-74
2022/03/25 02:34:13;;;;;;;12.57;9.63;;;;;;;;;;5064954;28;20561;-75
2022/03/25 02:36:45;;;;;;;11.90;9.87;;;;;;;;;;5052007;28;20429;-75
2022/03/25 02:39:12;;;;;;;10.10;9.13;;;;;;;;;;5071385;28;20921;-74
2022/03/25 02:41:38;;;;;;;13.90;10.73;;;;;;;;;;5062950;28;20952;-73
2022/03/25 02:44:04;;;;;;;13.13;10.10;;;;;;;;;;5069529;28;20944;-74
2022/03/25 02:46:30;;;;;;;17.90;11.27;;;;;;;;;;5050372;28;20947;-74
2022/03/25 02:48:56;;;;;;;14.47;10.60;;;;;;;;;;5069752;28;20913;-75
2022/03/25 02:51:22;;;;;;;18.90;12.17;;;;;;;;;;5069039;28;20429;-74
2022/03/25 02:53:48;;;;;;;16.60;11.00;;;;;;;;;;5063275;28;20998;-74
2022/03/25 02:56:14;;;;;;;14.37;10.10;;;;;;;;;;5067149;28;20818;-74
2022/03/25 02:58:40;;;;;;;12.90;10.47;;;;;;;;;;5068792;28;20426;-74
2022/03/25 03:01:06;;;;;;;14.30;10.80;;;;;;;;;;5036424;28;20835;-75
2022/03/25 03:03:36;;;;;;;12.10;10.00;;;;;;;;;;5064595;28;20500;-76
2022/03/25 03:06:02;;;;;;;18.37;11.13;;;;;;;;;;5068839;28;20448;-75
2022/03/25 03:08:30;;;;;;;15.73;10.77;;;;;;;;;;5069433;28;20425;-74
2022/03/25 03:10:56;;;;;;;16.40;11.70;;;;;;;;;;5068870;28;20428;-74
2022/03/25 03:13:22;;;;;;;17.43;11.30;;;;;;;;;;5048215;28;20446;-75
2022/03/25 03:15:49;;;;;;;16.53;12.00;;;;;;;;;;5032331;28;20457;-74
2022/03/25 03:18:15;;;;;;;18.83;11.97;;;;;;;;;;5068052;28;20447;-74
2022/03/25 03:20:42;;;;;;;13.50;10.70;;;;;;;;;;5069412;28;20528;-74
2022/03/25 03:23:08;;;;;;;15.27;11.13;;;;;;;;;;5065999;28;20517;-74
2022/03/25 03:25:34;;;;;;;12.33;10.10;;;;;;;;;;5066797;28;20485;-74
2022/03/25 03:28:01;;;;;;;11.63;9.50;;;;;;;;;;5070438;28;20770;-75
2022/03/25 03:30:27;;;;;;;11.83;10.07;;;;;;;;;;5066365;28;20484;-74
2022/03/25 03:32:57;;;;;;;13.07;9.30;;;;;;;;;;5067777;28;21047;-74
2022/03/25 03:35:24;;;;;;;15.83;11.07;;;;;;;;;;5048140;28;20626;-74
2022/03/25 03:37:50;;;;;;;17.60;11.20;;;;;;;;;;5069167;28;20516;-74
2022/03/25 03:40:16;;;;;;;18.43;10.13;;;;;;;;;;5051522;28;20438;-74
2022/03/25 03:42:42;;;;;;;15.30;11.80;;;;;;;;;;5070764;28;20425;-74
2022/03/25 03:45:08;;;;;;;14.17;11.00;;;;;;;;;;5066670;28;20438;-74
2022/03/25 03:47:35;;;;;;;11.27;9.80;;;;;;;;;;5068362;28;20503;-74
2022/03/25 03:50:01;;;;;;;15.93;12.47;;;;;;;;;;5069983;28;20446;-74
2022/03/25 03:52:28;;;;;;;16.70;11.73;;;;;;;;;;5068035;28;20437;-74
2022/03/25 03:54:54;;;;;;;16.67;11.70;;;;;;;;;;5048345;28;20485;-74
2022/03/25 03:57:20;;;;;;;14.40;10.53;;;;;;;;;;5068184;28;20551;-75
2022/03/25 03:59:46;;;;;;;25.30;11.63;;;;;;;;;;5069586;28;20429;-74
2022/03/25 04:02:12;;;;;;;21.83;12.17;;;;;;;;;;5052786;28;20425;-74
2022/03/25 04:04:38;;;;;;;13.50;11.50;;;;;;;;;;5033274;28;20425;-74
2022/03/25 04:07:04;;;;;;;22.80;12.40;;;;;;;;;;5062859;28;20453;-74
2022/03/25 04:09:30;;;;;;;16.23;11.23;;;;;;;;;;5068713;28;20434;-75
2022/03/25 04:11:56;;;;;;;66.83;30.87;;;;;;;;;;5051205;28;20449;-74
2022/03/25 04:14:22;;;;;;;82.83;34.20;;;;;;;;;;5064755;28;20606;-74
2022/03/25 04:16:48;;;;;;;73.43;33.23;;;;;;;;;;5062535;28;20441;-75
2022/03/25 04:19:15;;;;;;;34.13;15.27;;;;;;;;;;5068656;28;20444;-75
2022/03/25 04:21:41;;;;;;;16.80;12.10;;;;;;;;;;5062634;28;20436;-74
2022/03/25 04:24:07;;;;;;;37.20;15.20;;;;;;;;;;5067825;28;20436;-74
2022/03/25 04:26:33;;;;;;;16.07;11.03;;;;;;;;;;5058162;28;20435;-74
2022/03/25 04:28:59;;;;;;;15.33;8.53;;;;;;;;;;5065689;28;20469;-74
2022/03/25 04:31:25;;;;;;;11.83;8.40;;;;;;;;;;5069283;28;21000;-75
2022/03/25 04:33:51;;;;;;;13.47;9.43;;;;;;;;;;5067398;28;20547;-74
2022/03/25 04:36:17;;;;;;;19.50;11.30;;;;;;;;;;5062584;28;20425;-74
2022/03/25 04:38:43;;;;;;;18.53;11.00;;;;;;;;;;5067009;28;20461;-74
2022/03/25 04:41:10;;;;;;;20.90;13.33;;;;;;;;;;5067980;28;20445;-74
2022/03/25 04:43:36;;;;;;;22.43;13.67;;;;;;;;;;5049713;28;20445;-75
2022/03/25 04:46:02;;;;;;;17.87;13.57;;;;;;;;;;5060409;28;20448;-76
2022/03/25 04:48:28;;;;;;;20.80;13.80;;;;;;;;;;5063323;28;20445;-74
2022/03/25 04:50:54;;;;;;;33.30;13.40;;;;;;;;;;5066385;28;20978;-74
2022/03/25 04:53:21;;;;;;;21.83;13.73;;;;;;;;;;5068444;28;20863;-75
2022/03/25 04:55:47;;;;;;;21.00;12.60;;;;;;;;;;5064841;28;20496;-74
2022/03/25 04:58:14;;;;;;;17.27;13.77;;;;;;;;;;5063672;28;20476;-74
2022/03/25 05:00:40;;;;;;;17.33;13.00;;;;;;;;;;5068364;28;20990;-74
2022/03/25 05:03:06;;;;;;;15.00;11.50;;;;;;;;;;5069496;28;20437;-74
2022/03/25 05:05:32;;;;;;;17.50;11.13;;;;;;;;;;5067532;28;20465;-74
2022/03/25 05:07:58;;;;;;;15.57;10.87;;;;;;;;;;5029499;28;20902;-74
2022/03/25 05:10:25;;;;;;;17.97;9.77;;;;;;;;;;5066730;28;20541;-75
2022/03/25 05:12:51;;;;;;;13.07;8.03;;;;;;;;;;5064953;28;20474;-74
2022/03/25 05:15:17;;;;;;;9.07;8.27;;;;;;;;;;5067423;28;20488;-74
2022/03/25 05:17:44;;;;;;;10.03;8.87;;;;;;;;;;5063986;28;20441;-74
2022/03/25 05:20:11;;;;;;;13.23;8.67;;;;;;;;;;5062570;28;20797;-74
2022/03/25 05:22:37;;;;;;;15.90;10.83;;;;;;;;;;5065775;28;20448;-74
2022/03/25 05:25:06;;;;;;;20.27;10.90;;;;;;;;;;5066502;28;20445;-74
2022/03/25 05:27:32;;;;;;;15.23;11.37;;;;;;;;;;5065887;28;20964;-75
2022/03/25 05:29:58;;;;;;;14.70;11.40;;;;;;;;;;5062951;28;20496;-75
2022/03/25 05:32:24;;;;;;;17.77;11.83;;;;;;;;;;5068007;28;20437;-75
2022/03/25 05:34:50;;;;;;;17.97;12.47;;;;;;;;;;5046834;28;20477;-75
2022/03/25 05:37:16;;;;;;;20.20;13.07;;;;;;;;;;5065502;28;20433;-74
2022/03/25 05:39:42;;;;;;;25.70;12.07;;;;;;;;;;5066848;28;20970;-74
2022/03/25 05:42:09;;;;;;;24.77;13.23;;;;;;;;;;5067290;28;20509;-75
2022/03/25 05:44:35;;;;;;;17.03;12.80;;;;;;;;;;5067953;28;20444;-74
2022/03/25 05:47:01;;;;;;;22.90;15.10;;;;;;;;;;5072530;28;20800;-74
2022/03/25 05:49:27;;;;;;;19.60;12.77;;;;;;;;;;5049774;28;20453;-74
2022/03/25 05:51:53;;;;;;;38.53;13.20;;;;;;;;;;5068076;28;20429;-74
2022/03/25 05:54:19;;;;;;;15.73;11.30;;;;;;;;;;5072010;28;20476;-74
2022/03/25 05:56:45;;;;;;;22.70;13.50;;;;;;;;;;5071335;28;20832;-74
2022/03/25 05:59:11;;;;;;;21.10;13.10;;;;;;;;;;5069185;28;20444;-75
2022/03/25 06:01:37;;;;;;;15.77;11.00;;;;;;;;;;5067793;28;20627;-75
2022/03/25 06:04:03;;;;;;;21.60;11.83;;;;;;;;;;5068658;28;20457;-74
2022/03/25 06:06:29;;;;;;;15.53;12.57;;;;;;;;;;5052255;28;20433;-76
2022/03/25 06:08:55;;;;;;;23.10;11.70;;;;;;;;;;5071179;28;20424;-74
2022/03/25 06:11:22;;;;;;;13.70;11.47;;;;;;;;;;5070114;28;20462;-74
2022/03/25 06:13:48;;;;;;;18.53;11.70;;;;;;;;;;5069172;28;20469;-74
2022/03/25 06:16:14;;;;;;;15.60;11.97;;;;;;;;;;5052778;28;20542;-74
2022/03/25 06:18:40;;;;;;;15.27;12.87;;;;;;;;;;5051614;28;20479;-75
2022/03/25 06:21:06;;;;;;;18.00;12.00;;;;;;;;;;5069710;28;20441;-74
2022/03/25 06:23:33;;;;;;;19.33;12.37;;;;;;;;;;5068500;28;20432;-75
2022/03/25 06:26:00;;;;;;;19.37;11.47;;;;;;;;;;5070121;28;20524;-75
2022/03/25 06:28:26;;;;;;;15.60;10.93;;;;;;;;;;5069870;28;20436;-75
2022/03/25 06:30:52;;;;;;;20.40;11.07;;;;;;;;;;5067887;28;20489;-74
2022/03/25 06:33:18;;;;;;;15.73;11.50;;;;;;;;;;5069361;28;20433;-74
2022/03/25 06:35:44;;;;;;;22.90;11.90;;;;;;;;;;5067062;28;20473;-74
2022/03/25 06:38:11;;;;;;;16.87;10.43;;;;;;;;;;5053150;28;20475;-75
2022/03/25 06:40:37;;;;;;;15.50;9.73;;;;;;;;;;5052842;28;20926;-75
2022/03/25 06:43:04;;;;;;;15.50;10.73;;;;;;;;;;5069144;28;20433;-75
2022/03/25 06:45:30;;;;;;;20.60;11.40;;;;;;;;;;5051359;28;20533;-74
2022/03/25 06:47:57;;;;;;;16.40;10.73;;;;;;;;;;5049386;28;20509;-74
2022/03/25 06:50:24;;;;;;;18.17;11.70;;;;;;;;;;5067354;28;20441;-75
2022/03/25 06:52:50;;;;;;;20.43;13.40;;;;;;;;;;5066800;28;20441;-75
2022/03/25 06:55:17;;;;;;;21.03;13.57;;;;;;;;;;5068919;28;20491;-74
2022/03/25 06:57:43;;;;;;;34.07;14.40;;;;;;;;;;5069534;28;20437;-74
2022/03/25 07:00:12;;;;;;;30.20;14.30;;;;;;;;;;5069715;28;20433;-75
2022/03/25 07:02:42;;;;;;;25.07;15.17;;;;;;;;;;5049351;28;20426;-74
2022/03/25 07:05:10;;;;;;;30.07;17.00;;;;;;;;;;5069787;28;20460;-74
2022/03/25 07:07:37;;;;;;;24.00;15.70;;;;;;;;;;5053018;28;20425;-74
2022/03/25 07:10:03;;;;;;;25.70;15.20;;;;;;;;;;5067301;28;20962;-75
2022/03/25 07:12:29;;;;;;;25.50;14.47;;;;;;;;;;5068537;28;20424;-74
2022/03/25 07:14:55;;;;;;;20.00;13.90;;;;;;;;;;5046680;28;20485;-74
2022/03/25 07:17:21;;;;;;;18.73;13.63;;;;;;;;;;5031488;28;20439;-73
2022/03/25 07:19:47;;;;;;;21.93;13.20;;;;;;;;;;5067508;28;20445;-73
2022/03/25 07:22:13;;;;;;;20.70;14.10;;;;;;;;;;5064541;28;21366;-74
2022/03/25 07:24:39;;;;;;;19.30;13.90;;;;;;;;;;5067933;28;20532;-74
2022/03/25 07:27:05;;;;;;;17.23;12.43;;;;;;;;;;5066487;28;20532;-74
2022/03/25 07:29:31;;;;;;;22.97;13.90;;;;;;;;;;5070020;28;20642;-73
2022/03/25 07:31:57;;;;;;;20.47;14.13;;;;;;;;;;5065414;28;20929;-73
2022/03/25 07:34:23;;;;;;;28.43;16.10;;;;;;;;;;5066367;28;20516;-74
2022/03/25 07:36:49;;;;;;;27.10;14.60;;;;;;;;;;5067692;28;20566;-74
2022/03/25 07:39:15;;;;;;;21.27;13.63;;;;;;;;;;5049281;28;20490;-74
2022/03/25 07:41:41;;;;;;;17.97;12.63;;;;;;;;;;5069319;28;20441;-74
2022/03/25 07:44:07;;;;;;;22.90;14.57;;;;;;;;;;5061083;28;20644;-74
2022/03/25 07:46:33;;;;;;;19.70;13.20;;;;;;;;;;5066387;28;20191;-76
2022/03/25 07:48:59;;;;;;;19.17;12.47;;;;;;;;;;5067333;28;20808;-74
2022/03/25 07:51:25;;;;;;;16.67;11.00;;;;;;;;;;5049542;28;20445;-73
2022/03/25 07:53:51;;;;;;;16.03;11.97;;;;;;;;;;5047911;28;21043;-74
2022/03/25 07:56:17;;;;;;;18.33;12.57;;;;;;;;;;5069255;28;20429;-73
2022/03/25 07:58:43;;;;;;;16.23;11.63;;;;;;;;;;5062148;28;20960;-74
2022/03/25 08:01:09;;;;;;;19.50;12.93;;;;;;;;;;5059460;28;20451;-74
2022/03/25 08:03:35;;;;;;;20.17;13.00;;;;;;;;;;5064967;28;20445;-74
2022/03/25 08:06:01;;;;;;;20.40;14.27;;;;;;;;;;5043697;28;20540;-73
2022/03/25 08:08:27;;;;;;;20.90;14.53;;;;;;;;;;5064120;28;20834;-73
2022/03/25 08:10:55;;;;;;;18.70;12.10;;;;;;;;;;5065041;28;20949;-74
2022/03/25 08:13:22;;;;;;;22.27;14.60;;;;;;;;;;5067505;28;20429;-73
2022/03/25 08:15:48;;;;;;;23.90;12.87;;;;;;;;;;5048782;28;20821;-75
2022/03/25 08:18:16;;;;;;;18.43;12.80;;;;;;;;;;5068098;28;20425;-74
2022/03/25 08:20:43;;;;;;;20.47;14.50;;;;;;;;;;5065735;28;20449;-74
2022/03/25 08:27:48;;;;;;;24.43;13.70;;;;;;;;;;5061223;28;20486;-73
2022/03/25 08:28:45;;;;;;;20.33;13.80;;;;;;;;;;5063881;28;20468;-74
2022/03/25 08:31:11;;;;;;;31.37;14.50;;;;;;;;;;5067463;28;20477;-74
2022/03/25 08:33:37;;;;;;;28.23;13.80;;;;;;;;;;5065750;28;20502;-72
2022/03/25 08:36:03;;;;;;;27.60;15.17;;;;;;;;;;5065595;28;20445;-74
2022/03/25 08:38:29;;;;;;;24.67;14.50;;;;;;;;;;5067652;28;20429;-73
2022/03/25 08:40:55;;;;;;;24.53;14.90;;;;;;;;;;5066674;28;20433;-73
2022/03/25 08:43:21;;;;;;;32.20;16.30;;;;;;;;;;5064951;28;20984;-74
2022/03/25 08:45:47;;;;;;;27.90;16.93;;;;;;;;;;5067682;28;20425;-75
2022/03/25 08:48:13;;;;;;;24.87;15.07;;;;;;;;;;5067600;28;20433;-74
2022/03/25 08:50:39;;;;;;;27.70;15.47;;;;;;;;;;5051201;28;20440;-74
2022/03/25 08:53:05;;;;;;;26.50;14.87;;;;;;;;;;5049618;28;20437;-74
2022/03/25 08:55:32;;;;;;;25.77;14.30;;;;;;;;;;5065975;28;20870;-73
2022/03/25 08:57:58;;;;;;;28.50;13.43;;;;;;;;;;5060110;28;20919;-75
2022/03/25 09:00:24;;;;;;;27.03;16.63;;;;;;;;;;5065752;28;20476;-67
2022/03/25 09:02:50;;;;;;;24.77;14.97;;;;;;;;;;5066375;28;20436;-73
2022/03/25 09:05:16;;;;;;;32.57;16.07;;;;;;;;;;5060241;28;20437;-75
2022/03/25 09:07:42;;;;;;;35.23;16.37;;;;;;;;;;5045994;28;20771;-75
2022/03/25 09:10:09;;;;;;;27.20;17.03;;;;;;;;;;5066366;28;20429;-74
2022/03/25 09:12:35;;;;;;;26.90;15.97;;;;;;;;;;5066355;28;20425;-75
2022/03/25 09:15:02;;;;;;;29.43;18.17;;;;;;;;;;5065082;28;20531;-75
2022/03/25 09:17:28;;;;;;;33.27;18.40;;;;;;;;;;5067139;28;20442;-75
2022/03/25 09:19:54;;;;;;;34.37;18.73;;;;;;;;;;5063630;28;20498;-74
2022/03/25 09:22:21;;;;;;;34.03;18.70;;;;;;;;;;5064868;28;20433;-76
2022/03/25 09:24:47;;;;;;;28.33;18.70;;;;;;;;;;5061559;28;20446;-75
2022/03/25 09:27:13;;;;;;;32.90;17.00;;;;;;;;;;5067086;28;20599;-75
2022/03/25 09:29:39;;;;;;;28.57;16.83;;;;;;;;;;5065298;28;20956;-74
2022/03/25 09:32:05;;;;;;;31.30;17.40;;;;;;;;;;5066849;28;20521;-75
2022/03/25 09:37:16;;;;;;;30.03;16.37;;;;;;;;;;5059861;28;20476;-75
2022/03/25 09:39:42;;;;;;;28.83;17.70;;;;;;;;;;5061645;28;20897;-75
2022/03/25 09:42:08;;;;;;;29.60;16.57;;;;;;;;;;5066253;28;20487;-75
2022/03/25 09:44:34;;;;;;;26.97;16.30;;;;;;;;;;5067702;28;20425;-75
2022/03/25 09:47:03;;;;;;;28.67;16.70;;;;;;;;;;5065631;28;20516;-72
2022/03/25 09:49:30;;;;;;;30.53;16.93;;;;;;;;;;5064130;28;20441;-74
2022/03/25 09:51:56;;;;;;;29.50;15.67;;;;;;;;;;5061247;28;20441;-74
2022/03/25 09:54:22;;;;;;;35.93;14.83;;;;;;;;;;5048308;28;20895;-75
2022/03/25 09:56:48;;;;;;;30.00;18.20;;;;;;;;;;5046570;28;20425;-74
2022/03/25 09:59:17;;;;;;;31.07;17.87;;;;;;;;;;5061727;28;20573;-73
2022/03/25 10:01:43;;;;;;;30.43;16.80;;;;;;;;;;5065962;28;20433;-74
2022/03/25 10:04:09;;;;;;;25.30;16.43;;;;;;;;;;5065666;28;20429;-74
2022/03/25 10:06:56;;;;;;;25.80;14.60;;;;;;;;;;5060814;28;20448;-75
2022/03/25 10:09:22;;;;;;;29.60;15.37;;;;;;;;;;5064787;28;20494;-74
2022/03/25 10:11:48;;;;;;;28.87;16.33;;;;;;;;;;5049493;28;20426;-74
2022/03/25 10:14:18;;;;;;;24.97;16.40;;;;;;;;;;5049119;28;20469;-66
2022/03/25 10:16:49;;;;;;;29.73;16.60;;;;;;;;;;5058249;28;20578;-73
2022/03/25 10:19:23;;;;;;;26.73;15.97;;;;;;;;;;5066209;28;20567;-77
2022/03/25 10:22:09;;;;;;;27.47;17.33;;;;;;;;;;5064371;28;20971;-76
2022/03/25 10:24:43;;;;;;;25.60;15.60;;;;;;;;;;5049088;28;20877;-76
2022/03/25 10:27:09;;;;;;;30.10;17.27;;;;;;;;;;5064877;28;20785;-75
2022/03/25 10:29:35;;;;;;;28.00;16.50;;;;;;;;;;5064180;28;20477;-75
2022/03/25 10:32:12;;;;;;;25.50;16.80;;;;;;;;;;5067723;28;20565;-76
2022/03/25 10:34:39;;;;;;;29.90;16.40;;;;;;;;;;5067793;28;21042;-74
2022/03/25 10:37:07;;;;;;;28.30;15.50;;;;;;;;;;5065179;28;20437;-75
2022/03/25 10:39:33;;;;;;;26.13;16.47;;;;;;;;;;5063521;28;21130;-73
2022/03/25 10:42:04;;;;;;;24.67;17.27;;;;;;;;;;5028738;28;20846;-74
2022/03/25 10:44:43;;;;;;;19.33;12.43;;;;;;;;;;5065108;28;20430;-74
2022/03/25 10:47:15;;;;;;;26.03;16.47;;;;;;;;;;5065196;28;20453;-74
2022/03/25 10:49:43;;;;;;;29.43;15.00;;;;;;;;;;5070736;28;20414;-74
2022/03/25 10:52:22;;;;;;;20.20;14.87;;;;;;;;;;5069187;28;20437;-74
2022/03/25 10:54:47;;;;;;;33.90;16.63;;;;;;;;;;5069934;28;20484;-74
2022/03/25 10:57:15;;;;;;;36.70;20.13;;;;;;;;;;5066390;28;20457;-74
2022/03/25 10:59:41;;;;;;;29.20;15.40;;;;;;;;;;5067408;28;20525;-73
2022/03/25 11:02:08;;;;;;;26.97;16.70;;;;;;;;;;5066123;28;20544;-73
2022/03/25 11:04:34;;;;;;;28.90;17.40;;;;;;;;;;5070049;28;20437;-74
2022/03/25 11:07:02;;;;;;;23.57;13.90;;;;;;;;;;5069844;28;20438;-73
2022/03/25 11:09:28;;;;;;;27.80;15.67;;;;;;;;;;5048132;28;20441;-74
2022/03/25 11:11:55;;;;;;;27.57;16.20;;;;;;;;;;5066147;28;20508;-73
2022/03/25 11:14:21;;;;;;;29.07;18.70;;;;;;;;;;5052360;28;20561;-74
2022/03/25 11:16:48;;;;;;;31.23;15.47;;;;;;;;;;5068543;28;20435;-74
2022/03/25 11:19:15;;;;;;;30.47;17.20;;;;;;;;;;5069581;28;20432;-75
2022/03/25 11:21:42;;;;;;;28.70;16.73;;;;;;;;;;5069179;28;20452;-73
2022/03/25 11:24:18;;;;;;;35.73;18.17;;;;;;;;;;5068549;28;20842;-74
2022/03/25 11:26:46;;;;;;;34.00;19.67;;;;;;;;;;5068803;28;20460;-73
2022/03/25 11:29:14;;;;;;;32.53;18.60;;;;;;;;;;5069179;28;20434;-73
2022/03/25 11:31:59;;;;;;;27.47;17.80;;;;;;;;;;5069209;28;20476;-74
2022/03/25 11:34:26;;;;;;;35.43;18.40;;;;;;;;;;5068318;28;20481;-73
2022/03/25 11:37:11;;;;;;;30.77;18.90;;;;;;;;;;5068479;28;20446;-73
2022/03/25 11:39:37;;;;;;;35.33;22.03;;;;;;;;;;5051469;28;20476;-74
2022/03/25 11:42:04;;;;;;;32.23;19.30;;;;;;;;;;5069545;28;20457;-74
2022/03/25 11:44:30;;;;;;;36.73;19.23;;;;;;;;;;5069413;28;20437;-74
2022/03/25 11:46:59;;;;;;;34.70;20.23;;;;;;;;;;5068809;28;20457;-74
2022/03/25 11:49:29;;;;;;;33.87;20.10;;;;;;;;;;5067108;28;20456;-73
2022/03/25 11:51:56;;;;;;;30.10;20.00;;;;;;;;;;5052222;28;20433;-73
2022/03/25 11:54:42;;;;;;;34.23;19.00;;;;;;;;;;5066281;28;20487;-73
2022/03/25 11:57:47;;;;;;;31.40;17.20;;;;;;;;;;5068335;28;20544;-73
2022/03/25 12:00:27;;;;;;;48.33;17.77;;;;;;;;;;4936801;28;20454;-73
2022/03/25 12:03:00;;;;;;;29.03;16.30;;;;;;;;;;4948511;29;20439;-74
2022/03/25 12:05:26;;;;;;;30.50;18.37;;;;;;;;;;5022421;28;20442;-72
2022/03/25 12:08:11;;;;;;;24.73;15.37;;;;;;;;;;5068459;28;20434;-73
2022/03/25 12:10:44;;;;;;;37.53;19.37;;;;;;;;;;5068098;28;20466;-73
2022/03/25 12:13:10;;;;;;;32.83;20.00;;;;;;;;;;5051402;28;20434;-73
2022/03/25 12:15:40;;;;;;;34.60;19.10;;;;;;;;;;5068090;28;20869;-74
2022/03/25 12:18:25;;;;;;;41.73;21.73;;;;;;;;;;5067307;28;20849;-74
2022/03/25 12:20:51;;;;;;;41.20;20.63;;;;;;;;;;5065349;28;20464;-74
2022/03/25 12:23:17;;;;;;;32.73;18.60;;;;;;;;;;5063261;28;20461;-74
2022/03/25 12:25:44;;;;;;;32.07;18.33;;;;;;;;;;5049326;28;20434;-74
2022/03/25 12:28:10;;;;;;;47.50;22.40;;;;;;;;;;5067212;28;20442;-74
2022/03/25 12:30:36;;;;;;;39.47;19.50;;;;;;;;;;5049498;28;20564;-73
2022/03/25 12:33:06;;;;;;;31.63;18.77;;;;;;;;;;5068835;28;20525;-74
2022/03/25 12:35:33;;;;;;;46.27;21.03;;;;;;;;;;5068729;28;20473;-74
2022/03/25 12:38:19;;;;;;;38.87;21.60;;;;;;;;;;5068263;28;20932;-74
2022/03/25 12:40:45;;;;;;;51.57;21.97;;;;;;;;;;5067055;28;20479;-73
2022/03/25 12:43:11;;;;;;;30.90;18.40;;;;;;;;;;5067296;28;20432;-73
2022/03/25 12:45:38;;;;;;;51.83;22.20;;;;;;;;;;5067757;28;20437;-73
2022/03/25 12:48:09;;;;;;;48.03;19.73;;;;;;;;;;5067804;28;20428;-74
2022/03/25 12:50:35;;;;;;;39.10;20.33;;;;;;;;;;5066279;28;20490;-74
2022/03/25 12:53:02;;;;;;;38.97;21.27;;;;;;;;;;5049466;28;20430;-74
2022/03/25 12:55:29;;;;;;;40.80;22.10;;;;;;;;;;5067508;28;21049;-74
2022/03/25 12:58:21;;;;;;;41.60;21.93;;;;;;;;;;5066196;28;20498;-74
2022/03/25 13:00:50;;;;;;;34.70;21.80;;;;;;;;;;5065833;28;20782;-73
2022/03/25 13:03:17;;;;;;;32.30;20.30;;;;;;;;;;5067496;28;20805;-74
2022/03/25 13:05:44;;;;;;;35.40;21.03;;;;;;;;;;5066946;28;20433;-73
2022/03/25 13:08:10;;;;;;;29.57;20.40;;;;;;;;;;5067199;28;20425;-74
2022/03/25 13:10:36;;;;;;;69.37;22.73;;;;;;;;;;5066203;28;20991;-74
2022/03/25 13:13:04;;;;;;;36.83;20.00;;;;;;;;;;5066369;28;20429;-74
2022/03/25 13:15:30;;;;;;;28.00;17.40;;;;;;;;;;5060606;28;20477;-75
2022/03/25 13:17:58;;;;;;;37.37;20.03;;;;;;;;;;5046846;28;20456;-74
2022/03/25 13:20:45;;;;;;;31.97;19.20;;;;;;;;;;5067445;28;20437;-74
2022/03/25 13:23:13;;;;;;;28.03;18.90;;;;;;;;;;5049055;28;20855;-74
2022/03/25 13:25:39;;;;;;;33.17;19.23;;;;;;;;;;5068131;28;20437;-73
2022/03/25 13:28:09;;;;;;;32.77;21.40;;;;;;;;;;5067164;28;20487;-73
2022/03/25 13:30:37;;;;;;;35.23;19.47;;;;;;;;;;5046770;28;20480;-73
2022/03/25 13:33:04;;;;;;;35.67;20.57;;;;;;;;;;5065789;28;20463;-73
2022/03/25 13:35:46;;;;;;;36.63;21.33;;;;;;;;;;5066657;28;20553;-73
2022/03/25 13:38:13;;;;;;;28.03;17.77;;;;;;;;;;5066256;28;20447;-73
2022/03/25 13:40:43;;;;;;;32.67;19.50;;;;;;;;;;5066522;28;20436;-74
2022/03/25 13:43:12;;;;;;;32.40;19.73;;;;;;;;;;5067525;28;20514;-73
2022/03/25 13:45:38;;;;;;;29.87;20.87;;;;;;;;;;5064925;28;20426;-73
2022/03/25 13:48:05;;;;;;;50.30;19.80;;;;;;;;;;5064184;28;20438;-73
2022/03/25 13:50:32;;;;;;;35.17;18.90;;;;;;;;;;5063063;28;20520;-73
2022/03/25 13:53:14;;;;;;;41.67;20.83;;;;;;;;;;5058221;28;20524;-73
2022/03/25 13:55:41;;;;;;;32.67;17.70;;;;;;;;;;5063416;28;20976;-74
2022/03/25 13:58:14;;;;;;;31.00;18.37;;;;;;;;;;5066741;28;20824;-75
2022/03/25 14:00:42;;;;;;;33.47;19.13;;;;;;;;;;5063710;28;20448;-73
2022/03/25 14:03:08;;;;;;;33.33;18.07;;;;;;;;;;5068507;28;20418;-75
2022/03/25 14:05:37;;;;;;;39.40;19.87;;;;;;;;;;5068096;28;20514;-74
2022/03/25 14:08:04;;;;;;;32.03;17.00;;;;;;;;;;5068932;28;20460;-74
2022/03/25 14:10:30;;;;;;;46.27;20.50;;;;;;;;;;5071430;28;20446;-73
2022/03/25 14:13:06;;;;;;;56.90;21.87;;;;;;;;;;5050634;28;20440;-74
2022/03/25 14:15:33;;;;;;;55.10;21.73;;;;;;;;;;5070542;28;20834;-75
2022/03/25 14:17:59;;;;;;;48.13;19.33;;;;;;;;;;5069854;28;20432;-75
2022/03/25 14:20:31;;;;;;;38.50;18.03;;;;;;;;;;5052829;28;20918;-75
2022/03/25 14:23:01;;;;;;;37.43;20.10;;;;;;;;;;5065279;28;20429;-75
2022/03/25 14:25:32;;;;;;;45.37;19.07;;;;;;;;;;5066049;28;20441;-75